sensor_id;sensor_type;location;lat;lon;timestamp;pressure;altitude;pressure_sealevel;temperature;humidity
16100;BME280;8154;50.830;12.082;2023-03-18T00:02:07;98890.03;;;24.32;30.66
16100;BME280;8154;50.830;12.082;2023-03-18T00:04:33;98882.22;;;24.30;30.65
16100;BME280;8154;50.830;12.082;2023-03-18T00:06:59;98893.13;;;24.28;30.41
16100;BME280;8154;50.830;12.082;2023-03-18T00:09:25;98888.00;;;24.27;30.45
16100;BME280;8154;50.830;12.082;2023-03-18T00:11:52;98882.44;;;24.28;30.42
16100;BME280;8154;50.830;12.082;2023-03-18T00:14:19;98880.13;;;24.32;30.65
16100;BME280;8154;50.830;12.082;2023-03-18T00:16:47;98880.34;;;24.30;30.44
16100;BME280;8154;50.830;12.082;2023-03-18T00:19:14;98889.19;;;24.31;30.70
16100;BME280;8154;50.830;12.082;2023-03-18T00:21:39;98884.06;;;24.29;30.40
16100;BME280;8154;50.830;12.082;2023-03-18T00:24:06;98886.34;;;24.26;30.60
16100;BME280;8154;50.830;12.082;2023-03-18T00:26:32;98887.16;;;24.26;30.53
16100;BME280;8154;50.830;12.082;2023-03-18T00:28:58;98888.78;;;24.27;30.65
16100;BME280;8154;50.830;12.082;2023-03-18T00:31:25;98894.13;;;24.27;30.47
16100;BME280;8154;50.830;12.082;2023-03-18T00:33:52;98893.28;;;24.33;30.66
16100;BME280;8154;50.830;12.082;2023-03-18T00:36:18;98880.97;;;24.33;30.57
16100;BME280;8154;50.830;12.082;2023-03-18T00:38:52;98883.84;;;24.31;30.67
16100;BME280;8154;50.830;12.082;2023-03-18T00:41:24;98884.47;;;24.33;30.57
16100;BME280;8154;50.830;12.082;2023-03-18T00:43:50;98892.09;;;24.29;30.28
16100;BME280;8154;50.830;12.082;2023-03-18T00:46:29;98890.03;;;24.32;30.40
16100;BME280;8154;50.830;12.082;2023-03-18T00:48:58;98881.22;;;24.24;30.56
16100;BME280;8154;50.830;12.082;2023-03-18T00:51:27;98893.78;;;24.24;30.50
16100;BME280;8154;50.830;12.082;2023-03-18T04:09:45;99003.19;;;24.30;30.53
16100;BME280;8154;50.830;12.082;2023-03-18T04:12:11;99007.97;;;24.22;30.50
16100;BME280;8154;50.830;12.082;2023-03-18T04:14:38;99013.94;;;24.24;30.39
16100;BME280;8154;50.830;12.082;2023-03-18T04:17:04;99017.00;;;24.21;30.84
16100;BME280;8154;50.830;12.082;2023-03-18T04:19:32;99017.19;;;24.26;30.45
16100;BME280;8154;50.830;12.082;2023-03-18T05:10:58;99022.75;;;24.24;30.64
16100;BME280;8154;50.830;12.082;2023-03-18T05:13:24;99027.66;;;24.27;30.66
16100;BME280;8154;50.830;12.082;2023-03-18T05:15:50;99021.69;;;24.32;30.65
16100;BME280;8154;50.830;12.082;2023-03-18T05:18:17;99018.44;;;24.30;30.35
16100;BME280;8154;50.830;12.082;2023-03-18T05:20:43;99016.97;;;24.27;30.35
16100;BME280;8154;50.830;12.082;2023-03-18T05:23:09;99028.06;;;24.31;30.59
16100;BME280;8154;50.830;12.082;2023-03-18T05:25:35;99023.78;;;24.30;30.76
16100;BME280;8154;50.830;12.082;2023-03-18T05:28:01;99017.16;;;24.33;30.68
16100;BME280;8154;50.830;12.082;2023-03-18T05:30:27;99017.16;;;24.33;30.53
16100;BME280;8154;50.830;12.082;2023-03-18T05:32:53;99022.72;;;24.31;30.63
16100;BME280;8154;50.830;12.082;2023-03-18T05:35:19;99015.75;;;24.30;30.52
16100;BME280;8154;50.830;12.082;2023-03-18T05:37:46;99012.47;;;24.28;30.68
16100;BME280;8154;50.830;12.082;2023-03-18T05:40:13;99001.38;;;24.24;30.61
16100;BME280;8154;50.830;12.082;2023-03-18T05:42:39;99004.91;;;24.18;30.50
16100;BME280;8154;50.830;12.082;2023-03-18T05:45:09;99013.53;;;24.20;30.48
16100;BME280;8154;50.830;12.082;2023-03-18T05:47:35;99001.38;;;24.24;30.53
16100;BME280;8154;50.830;12.082;2023-03-18T05:50:01;99008.59;;;24.24;30.43
16100;BME280;8154;50.830;12.082;2023-03-18T05:52:28;99007.56;;;24.25;30.38
16100;BME280;8154;50.830;12.082;2023-03-18T05:54:54;99013.09;;;24.30;30.31
16100;BME280;8154;50.830;12.082;2023-03-18T05:57:20;99018.44;;;24.30;30.55
16100;BME280;8154;50.830;12.082;2023-03-18T05:59:47;99027.25;;;24.30;30.44
16100;BME280;8154;50.830;12.082;2023-03-18T06:02:17;99014.28;;;24.34;30.48
16100;BME280;8154;50.830;12.082;2023-03-18T06:04:42;99017.38;;;24.31;30.54
16100;BME280;8154;50.830;12.082;2023-03-18T06:07:09;99024.16;;;24.33;30.39
16100;BME280;8154;50.830;12.082;2023-03-18T06:09:37;99021.91;;;24.30;30.47
16100;BME280;8154;50.830;12.082;2023-03-18T09:12:47;99097.97;;;24.85;29.92
16100;BME280;8154;50.830;12.082;2023-03-18T09:15:15;99095.28;;;24.85;30.21
16100;BME280;8154;50.830;12.082;2023-03-18T09:17:42;99105.78;;;24.87;29.89
16100;BME280;8154;50.830;12.082;2023-03-18T09:20:12;99097.28;;;24.96;30.01
16100;BME280;8154;50.830;12.082;2023-03-18T11:25:44;99101.56;;;24.47;32.69
16100;BME280;8154;50.830;12.082;2023-03-18T11:28:19;99103.63;;;24.45;32.77
16100;BME280;8154;50.830;12.082;2023-03-18T11:30:54;99103.63;;;24.45;32.88
16100;BME280;8154;50.830;12.082;2023-03-18T11:33:25;99097.06;;;24.41;32.58
16100;BME280;8154;50.830;12.082;2023-03-18T11:36:04;99099.53;;;24.42;32.95
16100;BME280;8154;50.830;12.082;2023-03-18T11:38:33;99091.75;;;24.34;33.02
16100;BME280;8154;50.830;12.082;2023-03-18T11:41:22;99091.94;;;24.39;32.76
16100;BME280;8154;50.830;12.082;2023-03-18T11:43:59;99089.63;;;24.49;32.78
16100;BME280;8154;50.830;12.082;2023-03-18T11:49:02;99084.69;;;24.59;32.02
16100;BME280;8154;50.830;12.082;2023-03-18T11:57:14;99074.63;;;24.61;31.91
16100;BME280;8154;50.830;12.082;2023-03-18T12:02:44;99072.38;;;24.58;32.41
16100;BME280;8154;50.830;12.082;2023-03-18T12:05:41;99069.28;;;24.61;32.28
16100;BME280;8154;50.830;12.082;2023-03-18T12:24:25;99069.53;;;24.47;32.06
16100;BME280;8154;50.830;12.082;2023-03-18T12:27:02;99064.59;;;24.50;32.38
16100;BME280;8154;50.830;12.082;2023-03-18T12:45:57;99048.88;;;24.73;31.90
16100;BME280;8154;50.830;12.082;2023-03-18T12:48:31;99043.13;;;24.76;31.67
16100;BME280;8154;50.830;12.082;2023-03-18T12:51:03;99055.44;;;24.77;31.68
16100;BME280;8154;50.830;12.082;2023-03-18T12:53:41;99050.94;;;24.65;32.16
16100;BME280;8154;50.830;12.082;2023-03-18T12:56:22;99041.94;;;24.59;31.84
16100;BME280;8154;50.830;12.082;2023-03-18T12:59:05;99042.75;;;24.60;32.05
16100;BME280;8154;50.830;12.082;2023-03-18T13:02:36;99035.13;;;24.63;31.86
16100;BME280;8154;50.830;12.082;2023-03-18T13:04:32;99041.50;;;24.62;31.89
16100;BME280;8154;50.830;12.082;2023-03-18T13:07:13;99038.63;;;24.64;32.03
16100;BME280;8154;50.830;12.082;2023-03-18T13:09:57;99036.19;;;24.56;31.87
16100;BME280;8154;50.830;12.082;2023-03-18T13:12:30;99029.00;;;24.56;32.13
16100;BME280;8154;50.830;12.082;2023-03-18T13:15:24;99041.94;;;24.66;32.10
16100;BME280;8154;50.830;12.082;2023-03-18T13:17:56;99033.06;;;24.65;31.62
16100;BME280;8154;50.830;12.082;2023-03-18T13:20:28;99041.50;;;24.62;31.76
16100;BME280;8154;50.830;12.082;2023-03-18T16:26:53;99002.56;;;24.35;31.92
16100;BME280;8154;50.830;12.082;2023-03-18T16:29:27;99014.50;;;24.33;31.80
16100;BME280;8154;50.830;12.082;2023-03-18T16:31:54;99008.75;;;24.29;31.81
16100;BME280;8154;50.830;12.082;2023-03-18T16:34:20;99021.13;;;24.17;32.04
16100;BME280;8154;50.830;12.082;2023-03-18T16:36:47;99010.88;;;24.14;32.07
16100;BME280;8154;50.830;12.082;2023-03-18T16:39:21;99012.94;;;24.12;32.11
16100;BME280;8154;50.830;12.082;2023-03-18T16:41:52;99022.16;;;24.16;31.92
16100;BME280;8154;50.830;12.082;2023-03-18T16:44:20;99026.66;;;24.22;32.22
16100;BME280;8154;50.830;12.082;2023-03-18T16:46:48;99022.75;;;24.18;32.13
16100;BME280;8154;50.830;12.082;2023-03-18T16:49:29;99014.16;;;24.22;31.96
16100;BME280;8154;50.830;12.082;2023-03-18T16:51:56;99019.88;;;24.26;31.78
16100;BME280;8154;50.830;12.082;2023-03-18T16:54:25;99022.34;;;24.21;31.79
16100;BME280;8154;50.830;12.082;2023-03-18T16:56:54;99031.94;;;24.35;31.79
16100;BME280;8154;50.830;12.082;2023-03-18T16:59:22;99030.69;;;24.44;31.94
16100;BME280;8154;50.830;12.082;2023-03-18T17:01:50;99035.44;;;24.36;32.08
16100;BME280;8154;50.830;12.082;2023-03-18T17:04:29;99031.56;;;24.32;32.54
16100;BME280;8154;50.830;12.082;2023-03-18T17:06:57;99038.09;;;24.42;32.47
16100;BME280;8154;50.830;12.082;2023-03-18T17:09:23;99039.53;;;24.38;32.41
16100;BME280;8154;50.830;12.082;2023-03-18T17:11:52;99034.81;;;24.33;32.44
16100;BME280;8154;50.830;12.082;2023-03-18T17:14:39;99034.81;;;24.40;32.43
16100;BME280;8154;50.830;12.082;2023-03-18T17:17:12;99036.88;;;24.38;32.07
16100;BME280;8154;50.830;12.082;2023-03-18T17:19:40;99033.38;;;24.44;32.11
16100;BME280;8154;50.830;12.082;2023-03-18T17:22:20;99038.72;;;24.44;32.01
16100;BME280;8154;50.830;12.082;2023-03-18T17:25:05;99044.06;;;24.44;32.03
16100;BME280;8154;50.830;12.082;2023-03-18T17:27:33;99044.72;;;24.33;32.24
16100;BME280;8154;50.830;12.082;2023-03-18T17:30:17;99038.75;;;24.24;32.69
16100;BME280;8154;50.830;12.082;2023-03-18T17:32:45;99042.84;;;24.33;32.49
16100;BME280;8154;50.830;12.082;2023-03-18T17:35:14;99044.06;;;24.38;32.23
16100;BME280;8154;50.830;12.082;2023-03-18T17:37:41;99045.28;;;24.42;32.25
16100;BME280;8154;50.830;12.082;2023-03-18T17:40:09;99039.50;;;24.45;31.91
16100;BME280;8154;50.830;12.082;2023-03-18T17:42:35;99050.81;;;24.47;32.20
16100;BME280;8154;50.830;12.082;2023-03-18T17:45:26;99044.44;;;24.48;31.91
16100;BME280;8154;50.830;12.082;2023-03-18T17:47:57;99049.41;;;24.38;32.32
16100;BME280;8154;50.830;12.082;2023-03-18T17:50:26;99056.03;;;24.28;32.18
16100;BME280;8154;50.830;12.082;2023-03-18T17:52:52;99051.06;;;24.39;32.07
16100;BME280;8154;50.830;12.082;2023-03-18T17:55:21;99056.59;;;24.44;32.18
16100;BME280;8154;50.830;12.082;2023-03-18T17:57:48;99060.47;;;24.48;31.93
16100;BME280;8154;50.830;12.082;2023-03-18T18:00:24;99060.03;;;24.51;32.06
16100;BME280;8154;50.830;12.082;2023-03-18T18:02:52;99060.25;;;24.49;31.72
16100;BME280;8154;50.830;12.082;2023-03-18T18:05:23;99065.59;;;24.49;31.96
16100;BME280;8154;50.830;12.082;2023-03-18T18:07:49;99068.88;;;24.51;31.81
16100;BME280;8154;50.830;12.082;2023-03-18T18:10:17;99074.03;;;24.46;31.79
16100;BME280;8154;50.830;12.082;2023-03-18T18:12:47;99065.84;;;24.41;31.84
16100;BME280;8154;50.830;12.082;2023-03-18T18:15:18;99066.31;;;24.25;32.17
16100;BME280;8154;50.830;12.082;2023-03-18T18:17:45;99066.06;;;24.33;32.28
16100;BME280;8154;50.830;12.082;2023-03-18T18:20:14;99061.09;;;24.43;31.93
16100;BME280;8154;50.830;12.082;2023-03-18T18:22:44;99065.81;;;24.48;32.00
16100;BME280;8154;50.830;12.082;2023-03-18T18:25:18;99062.53;;;24.46;31.78
16100;BME280;8154;50.830;12.082;2023-03-18T18:27:47;99068.06;;;24.51;31.75
16100;BME280;8154;50.830;12.082;2023-03-18T18:30:19;99070.94;;;24.49;31.53
16100;BME280;8154;50.830;12.082;2023-03-18T18:32:47;99078.09;;;24.55;31.67
16100;BME280;8154;50.830;12.082;2023-03-18T18:35:15;99068.25;;;24.49;31.62
16100;BME280;8154;50.830;12.082;2023-03-18T18:37:42;99073.59;;;24.49;31.68
16100;BME280;8154;50.830;12.082;2023-03-18T18:40:10;99078.94;;;24.49;31.74
16100;BME280;8154;50.830;12.082;2023-03-18T18:42:38;99077.31;;;24.48;31.84
16100;BME280;8154;50.830;12.082;2023-03-18T18:45:04;99086.97;;;24.49;31.95
16100;BME280;8154;50.830;12.082;2023-03-18T18:47:34;99084.16;;;24.38;31.83
16100;BME280;8154;50.830;12.082;2023-03-18T18:50:03;99081.47;;;24.31;32.11
16100;BME280;8154;50.830;12.082;2023-03-18T18:52:30;99083.53;;;24.36;32.19
16100;BME280;8154;50.830;12.082;2023-03-18T18:54:57;99084.56;;;24.41;31.75
16100;BME280;8154;50.830;12.082;2023-03-18T18:57:25;99086.59;;;24.46;31.66
16100;BME280;8154;50.830;12.082;2023-03-18T18:59:53;99083.91;;;24.46;31.81
16100;BME280;8154;50.830;12.082;2023-03-18T19:02:33;99079.22;;;24.41;32.13
16100;BME280;8154;50.830;12.082;2023-03-18T19:05:00;99081.25;;;24.46;31.80
16100;BME280;8154;50.830;12.082;2023-03-18T19:07:31;99082.47;;;24.43;31.80
16100;BME280;8154;50.830;12.082;2023-03-18T19:09:58;99081.88;;;24.41;31.63
16100;BME280;8154;50.830;12.082;2023-03-18T19:12:25;99080.00;;;24.48;31.58
16100;BME280;8154;50.830;12.082;2023-03-18T19:14:52;99079.59;;;24.45;31.98
16100;BME280;8154;50.830;12.082;2023-03-18T19:17:20;99081.91;;;24.35;31.78
16100;BME280;8154;50.830;12.082;2023-03-18T19:19:49;99083.53;;;24.29;32.06
16100;BME280;8154;50.830;12.082;2023-03-18T19:22:19;99083.94;;;24.33;32.19
16100;BME280;8154;50.830;12.082;2023-03-18T19:24:51;99087.81;;;24.37;32.15
16100;BME280;8154;50.830;12.082;2023-03-18T19:27:22;99078.59;;;24.39;31.90
16100;BME280;8154;50.830;12.082;2023-03-18T19:29:52;99082.69;;;24.42;31.87
16100;BME280;8154;50.830;12.082;2023-03-18T19:32:21;99087.63;;;24.38;31.95
16100;BME280;8154;50.830;12.082;2023-03-18T19:34:51;99089.28;;;24.33;32.03
16100;BME280;8154;50.830;12.082;2023-03-18T19:37:19;99085.56;;;24.33;32.11
16100;BME280;8154;50.830;12.082;2023-03-18T19:39:49;99097.09;;;24.34;31.88
16100;BME280;8154;50.830;12.082;2023-03-18T19:42:17;99090.50;;;24.37;32.07
16100;BME280;8154;50.830;12.082;2023-03-18T19:44:46;99097.50;;;24.38;32.09
16100;BME280;8154;50.830;12.082;2023-03-18T19:47:18;99098.72;;;24.35;31.97
16100;BME280;8154;50.830;12.082;2023-03-18T19:49:46;99103.28;;;24.28;32.21
16100;BME280;8154;50.830;12.082;2023-03-18T19:52:20;99102.66;;;24.26;32.20
16100;BME280;8154;50.830;12.082;2023-03-18T19:54:47;99097.72;;;24.23;32.12
16100;BME280;8154;50.830;12.082;2023-03-18T19:59:46;99107.56;;;24.29;31.80
16100;BME280;8154;50.830;12.082;2023-03-18T20:02:19;99115.38;;;24.30;31.77
16100;BME280;8154;50.830;12.082;2023-03-18T20:04:49;99116.19;;;24.31;31.74
16100;BME280;8154;50.830;12.082;2023-03-18T20:07:21;99118.88;;;24.31;32.14
16100;BME280;8154;50.830;12.082;2023-03-18T20:09:49;99118.88;;;24.31;31.91
16100;BME280;8154;50.830;12.082;2023-03-18T20:12:38;99117.25;;;24.30;31.85
16100;BME280;8154;50.830;12.082;2023-03-18T20:15:12;99118.88;;;24.31;32.11
16100;BME280;8154;50.830;12.082;2023-03-18T20:17:44;99121.53;;;24.31;31.76
16100;BME280;8154;50.830;12.082;2023-03-18T20:20:24;99123.81;;;24.27;32.20
16100;BME280;8154;50.830;12.082;2023-03-18T20:22:55;99126.25;;;24.29;31.90
16100;BME280;8154;50.830;12.082;2023-03-18T21:26:17;99155.03;;;24.33;32.11
16100;BME280;8154;50.830;12.082;2023-03-18T21:28:45;99159.72;;;24.38;31.55
16100;BME280;8154;50.830;12.082;2023-03-18T21:31:26;99143.91;;;24.37;31.84
16100;BME280;8154;50.830;12.082;2023-03-18T21:33:56;99152.75;;;24.37;31.69
16100;BME280;8154;50.830;12.082;2023-03-18T21:36:22;99154.63;;;24.30;32.10
16100;BME280;8154;50.830;12.082;2023-03-18T21:38:49;99160.38;;;24.27;32.00
16100;BME280;8154;50.830;12.082;2023-03-18T21:41:19;99148.88;;;24.20;32.27
16100;BME280;8154;50.830;12.082;2023-03-18T21:43:46;99161.59;;;24.31;32.10
16100;BME280;8154;50.830;12.082;2023-03-18T21:46:16;99147.63;;;24.29;31.94
16100;BME280;8154;50.830;12.082;2023-03-18T21:48:43;99155.44;;;24.44;31.60
16100;BME280;8154;50.830;12.082;2023-03-18T21:53:44;99157.06;;;24.45;31.50
16100;BME280;8154;50.830;12.082;2023-03-18T21:56:11;99146.78;;;24.48;31.56
16100;BME280;8154;50.830;12.082;2023-03-18T21:58:37;99144.75;;;24.44;31.95
16100;BME280;8154;50.830;12.082;2023-03-18T22:01:04;99146.38;;;24.38;31.78
16100;BME280;8154;50.830;12.082;2023-03-18T22:03:30;99141.25;;;24.37;32.00
16100;BME280;8154;50.830;12.082;2023-03-18T22:05:58;99142.28;;;24.36;31.70
16100;BME280;8154;50.830;12.082;2023-03-18T22:08:25;99143.91;;;24.43;31.74
16100;BME280;8154;50.830;12.082;2023-03-18T22:10:52;99139.41;;;24.44;31.67
16100;BME280;8154;50.830;12.082;2023-03-18T22:15:47;99143.69;;;24.45;32.00
16100;BME280;8154;50.830;12.082;2023-03-18T22:18:14;99144.75;;;24.44;31.75
16100;BME280;8154;50.830;12.082;2023-03-18T22:20:41;99141.84;;;24.45;31.70
16100;BME280;8154;50.830;12.082;2023-03-18T22:23:16;99142.28;;;24.42;31.73
16100;BME280;8154;50.830;12.082;2023-03-18T22:25:45;99147.19;;;24.45;31.82
16100;BME280;8154;50.830;12.082;2023-03-18T22:28:12;99148.63;;;24.48;31.40
16100;BME280;8154;50.830;12.082;2023-03-18T22:30:41;99150.50;;;24.47;31.66
16100;BME280;8154;50.830;12.082;2023-03-18T22:33:19;99148.41;;;24.49;31.71
16100;BME280;8154;50.830;12.082;2023-03-18T22:35:47;99145.75;;;24.49;31.62
16100;BME280;8154;50.830;12.082;2023-03-18T22:38:15;99143.28;;;24.48;31.53
16100;BME280;8154;50.830;12.082;2023-03-18T22:40:43;99152.75;;;24.37;31.74
16100;BME280;8154;50.830;12.082;2023-03-18T22:43:19;99145.78;;;24.36;31.73
16100;BME280;8154;50.830;12.082;2023-03-18T22:45:47;99145.16;;;24.34;31.94
16100;BME280;8154;50.830;12.082;2023-03-18T22:48:15;99136.75;;;24.30;31.87
16100;BME280;8154;50.830;12.082;2023-03-18T22:50:45;99145.59;;;24.31;32.02
16100;BME280;8154;50.830;12.082;2023-03-18T22:53:20;99146.78;;;24.35;32.06
16100;BME280;8154;50.830;12.082;2023-03-18T22:55:48;99141.25;;;24.43;31.72
16100;BME280;8154;50.830;12.082;2023-03-18T22:58:20;99145.78;;;24.43;31.64
16100;BME280;8154;50.830;12.082;2023-03-18T23:00:47;99146.59;;;24.37;31.87
16100;BME280;8154;50.830;12.082;2023-03-18T23:03:23;99144.31;;;24.40;31.70
16100;BME280;8154;50.830;12.082;2023-03-18T23:05:52;99154.19;;;24.46;31.67
16100;BME280;8154;50.830;12.082;2023-03-18T23:08:21;99164.44;;;24.49;31.85
16100;BME280;8154;50.830;12.082;2023-03-18T23:10:49;99159.31;;;24.48;31.93
16100;BME280;8154;50.830;12.082;2023-03-18T23:13:32;99158.50;;;24.41;31.65
16100;BME280;8154;50.830;12.082;2023-03-18T23:16:00;99158.72;;;24.39;31.93
16100;BME280;8154;50.830;12.082;2023-03-18T23:18:29;99159.56;;;24.33;31.93
16100;BME280;8154;50.830;12.082;2023-03-18T23:20:56;99151.53;;;24.33;31.60
16100;BME280;8154;50.830;12.082;2023-03-18T23:23:23;99161.81;;;24.43;31.73
16100;BME280;8154;50.830;12.082;2023-03-18T23:25:50;99152.75;;;24.44;31.49
